Time;durP1;ratioP1;P1;durP2;ratioP2;P2;SDS_P1;SDS_P2;PMS_P1;PMS_P2;Temp;Humidity;BMP_temperature;BMP_pressure;BME280_temperature;BME280_humidity;BME280_pressure;Samples;Min_cycle;Max_cycle;Signal;HPM_P1;HPM_P2
2022/11/20 00:02:18;;;;;;;1.92;1.73;;;7.70;99.90;;;;;;5031600;28;20382;-71
2022/11/20 00:04:43;;;;;;;2.70;1.60;;;7.60;99.90;;;;;;5030923;28;20788;-71
2022/11/20 00:07:09;;;;;;;2.00;1.80;;;7.60;99.90;;;;;;5031557;28;20865;-71
2022/11/20 00:09:34;;;;;;;2.20;2.00;;;7.60;99.90;;;;;;5031543;28;20424;-70
2022/11/20 00:12:00;;;;;;;3.00;2.30;;;7.70;99.90;;;;;;5031220;28;20399;-70
2022/11/20 00:14:25;;;;;;;1.73;1.63;;;7.60;99.90;;;;;;5012962;28;20824;-71
2022/11/20 00:16:51;;;;;;;1.93;1.70;;;7.60;99.90;;;;;;5031414;28;20391;-71
2022/11/20 00:19:16;;;;;;;2.67;2.10;;;7.60;99.90;;;;;;5031192;28;20776;-71
2022/11/20 00:21:42;;;;;;;2.10;1.90;;;7.60;99.90;;;;;;5031339;28;20441;-72
2022/11/20 00:24:08;;;;;;;2.00;1.90;;;7.60;99.90;;;;;;5030294;28;20412;-71
2022/11/20 00:26:34;;;;;;;4.28;2.22;;;7.60;99.90;;;;;;5013465;28;20394;-72
2022/11/20 00:29:01;;;;;;;3.47;2.17;;;7.60;99.90;;;;;;5029995;28;20936;-70
2022/11/20 00:31:27;;;;;;;2.35;2.00;;;7.60;99.90;;;;;;5031245;28;20386;-70
2022/11/20 00:33:53;;;;;;;3.40;2.70;;;7.50;99.90;;;;;;5030142;28;20383;-70
2022/11/20 00:36:21;;;;;;;2.65;2.40;;;7.60;99.90;;;;;;5030983;28;20416;-70
2022/11/20 00:38:50;;;;;;;2.50;2.30;;;7.50;99.90;;;;;;5030757;28;20403;-71
2022/11/20 00:41:16;;;;;;;3.20;2.90;;;7.50;99.90;;;;;;5050621;28;20392;-71
2022/11/20 00:43:42;;;;;;;3.40;2.60;;;7.50;99.90;;;;;;5050121;28;20418;-70
2022/11/20 00:46:15;;;;;;;3.47;2.70;;;7.50;99.90;;;;;;5050899;28;20890;-70
2022/11/20 00:48:41;;;;;;;2.90;2.60;;;7.50;99.90;;;;;;5050243;28;20463;-70
2022/11/20 00:51:07;;;;;;;3.40;3.10;;;7.40;99.90;;;;;;5050518;28;20373;-70
2022/11/20 00:53:33;;;;;;;3.50;3.20;;;7.40;99.90;;;;;;5049796;28;20822;-70
2022/11/20 00:56:01;;;;;;;5.40;3.00;;;7.40;99.90;;;;;;5050485;28;20392;-69
2022/11/20 00:58:39;;;;;;;2.80;2.60;;;7.40;99.90;;;;;;5050486;28;20867;-70
2022/11/20 01:01:25;;;;;;;3.22;2.92;;;7.40;99.90;;;;;;5050363;28;20393;-70
2022/11/20 01:03:53;;;;;;;3.17;2.88;;;7.40;99.90;;;;;;5049487;28;20404;-70
2022/11/20 01:06:21;;;;;;;3.20;2.90;;;7.40;99.90;;;;;;5050322;28;20385;-70
2022/11/20 01:08:48;;;;;;;4.10;3.03;;;7.40;99.90;;;;;;5050178;28;20416;-70
2022/11/20 01:11:20;;;;;;;3.13;2.43;;;7.40;99.90;;;;;;5050147;28;20412;-70
2022/11/20 01:13:48;;;;;;;4.00;2.78;;;7.50;99.90;;;;;;5049376;28;20369;-70
2022/11/20 01:16:22;;;;;;;2.50;2.30;;;7.50;99.90;;;;;;5050217;28;20468;-70
2022/11/20 01:18:50;;;;;;;2.83;2.40;;;7.60;99.90;;;;;;5050045;28;20748;-70
2022/11/20 01:21:19;;;;;;;2.60;2.40;;;7.60;99.90;;;;;;5032193;28;20438;-70
2022/11/20 01:23:46;;;;;;;2.92;1.90;;;7.60;99.90;;;;;;5049405;28;20440;-70
2022/11/20 01:26:14;;;;;;;2.42;2.22;;;7.60;99.90;;;;;;5049798;28;20431;-70
2022/11/20 01:28:41;;;;;;;2.53;2.33;;;7.50;99.90;;;;;;5049094;28;20487;-70
2022/11/20 01:31:18;;;;;;;2.10;1.90;;;7.50;99.90;;;;;;5050861;28;20389;-70
2022/11/20 01:33:45;;;;;;;2.80;2.50;;;7.60;99.90;;;;;;5049357;28;20388;-70
2022/11/20 01:36:11;;;;;;;2.72;2.25;;;7.60;99.90;;;;;;5050045;28;20381;-70
2022/11/20 01:38:38;;;;;;;2.85;2.45;;;7.60;99.90;;;;;;5049900;28;20430;-70
2022/11/20 01:41:04;;;;;;;4.00;2.80;;;7.60;99.90;;;;;;5049864;28;20386;-69
2022/11/20 01:43:30;;;;;;;2.50;2.10;;;7.60;99.90;;;;;;5049391;28;20397;-71
2022/11/20 01:46:01;;;;;;;3.10;2.30;;;7.50;99.90;;;;;;5054164;28;20404;-70
2022/11/20 01:48:33;;;;;;;3.30;2.50;;;7.60;99.90;;;;;;5053759;28;20401;-70
2022/11/20 01:51:00;;;;;;;2.67;2.40;;;7.60;99.90;;;;;;5054291;28;20736;-70
2022/11/20 01:53:31;;;;;;;5.90;2.40;;;7.50;99.90;;;;;;5053424;28;20381;-70
2022/11/20 01:56:00;;;;;;;3.00;2.60;;;7.60;99.90;;;;;;5053922;28;20373;-69
2022/11/20 01:58:32;;;;;;;3.95;2.63;;;7.60;99.90;;;;;;5053972;28;20380;-70
2022/11/20 02:00:58;;;;;;;3.33;2.50;;;7.60;99.90;;;;;;5053741;28;20456;-69
2022/11/20 02:03:25;;;;;;;2.60;2.40;;;7.60;99.90;;;;;;5052877;28;20392;-70
2022/11/20 02:06:12;;;;;;;3.22;2.20;;;7.60;99.90;;;;;;5053905;28;20803;-70
2022/11/20 02:08:39;;;;;;;3.90;2.50;;;7.60;99.90;;;;;;5053850;28;20787;-70
2022/11/20 02:11:05;;;;;;;2.03;1.90;;;7.60;99.90;;;;;;5053608;28;20420;-70
2022/11/20 02:13:42;;;;;;;2.92;2.20;;;7.60;99.90;;;;;;5052704;28;20378;-70
2022/11/20 02:16:16;;;;;;;3.83;2.00;;;7.60;99.90;;;;;;5053625;28;20851;-70
2022/11/20 02:18:43;;;;;;;2.13;1.92;;;7.60;99.90;;;;;;5053419;28;20382;-69
2022/11/20 02:21:32;;;;;;;2.17;1.83;;;7.70;99.90;;;;;;5035923;28;20861;-70
2022/11/20 02:24:15;;;;;;;2.45;1.90;;;7.70;99.90;;;;;;5052651;28;20389;-70
2022/11/20 02:26:56;;;;;;;2.45;1.90;;;7.60;99.90;;;;;;5053390;28;20381;-70
2022/11/20 02:29:52;;;;;;;2.42;2.10;;;7.70;99.90;;;;;;5052212;28;20413;-70
2022/11/20 02:32:31;;;;;;;2.55;1.90;;;7.70;99.90;;;;;;5051778;28;20385;-70
2022/11/20 02:34:56;;;;;;;2.00;1.90;;;7.70;99.90;;;;;;5052834;28;20488;-70
2022/11/20 02:37:23;;;;;;;2.40;2.20;;;7.70;99.90;;;;;;5053114;28;20388;-70
2022/11/20 02:39:50;;;;;;;3.53;2.00;;;7.70;99.90;;;;;;5052886;28;20994;-71
2022/11/20 02:42:16;;;;;;;2.38;2.00;;;7.80;99.90;;;;;;5052778;28;20523;-70
2022/11/20 02:44:41;;;;;;;2.03;1.80;;;7.80;99.90;;;;;;5052168;28;20931;-70
2022/11/20 02:47:07;;;;;;;3.00;2.10;;;7.80;99.90;;;;;;5052925;28;20388;-70
2022/11/20 02:49:33;;;;;;;4.03;2.40;;;7.70;99.90;;;;;;5052704;28;20999;-71
2022/11/20 02:51:58;;;;;;;3.70;2.00;;;7.70;99.90;;;;;;5034949;28;20896;-70
2022/11/20 02:54:24;;;;;;;2.55;1.90;;;7.70;99.90;;;;;;5051837;28;20377;-70
2022/11/20 02:56:50;;;;;;;3.30;1.90;;;7.70;99.90;;;;;;5052652;28;20465;-70
2022/11/20 02:59:16;;;;;;;2.25;2.00;;;7.70;99.90;;;;;;5052766;28;20450;-71
2022/11/20 03:01:41;;;;;;;3.00;2.05;;;7.70;99.90;;;;;;5052587;28;20447;-70
2022/11/20 03:04:07;;;;;;;3.70;2.30;;;7.60;99.90;;;;;;5051757;28;20441;-70
2022/11/20 03:06:32;;;;;;;1.90;1.80;;;7.60;99.90;;;;;;5052734;28;20417;-71
2022/11/20 03:08:58;;;;;;;2.60;2.27;;;7.60;99.90;;;;;;5052381;28;20401;-70
2022/11/20 03:11:24;;;;;;;2.00;1.80;;;7.60;99.90;;;;;;5052188;28;20484;-70
2022/11/20 03:13:49;;;;;;;3.80;1.80;;;7.60;99.90;;;;;;5088177;22;20423;-69
2022/11/20 03:16:21;;;;;;;2.70;1.70;;;7.70;99.90;;;;;;5072157;28;20376;-68
2022/11/20 03:18:47;;;;;;;3.87;1.60;;;7.60;99.90;;;;;;5072320;28;20423;-69
2022/11/20 03:21:13;;;;;;;2.40;1.60;;;7.60;99.90;;;;;;5071079;28;20815;-69
2022/11/20 03:23:39;;;;;;;3.00;1.60;;;7.60;99.90;;;;;;5085077;28;20402;-68
2022/11/20 03:26:25;;;;;;;1.70;1.60;;;7.70;99.90;;;;;;5091143;28;20414;-69
2022/11/20 03:28:52;;;;;;;2.50;2.30;;;7.70;99.90;;;;;;5092289;28;20406;-69
2022/11/20 03:31:22;;;;;;;3.35;2.40;;;7.60;99.90;;;;;;5092155;28;20413;-69
2022/11/20 03:33:47;;;;;;;4.25;2.25;;;7.60;99.90;;;;;;5091174;28;20390;-68
2022/11/20 03:36:15;;;;;;;2.47;2.27;;;7.60;99.90;;;;;;5090363;28;20776;-69
2022/11/20 03:38:41;;;;;;;2.50;2.15;;;7.60;99.90;;;;;;5091900;28;20447;-69
2022/11/20 03:41:09;;;;;;;2.47;2.20;;;7.60;99.90;;;;;;5091854;28;20397;-69
2022/11/20 03:43:35;;;;;;;2.70;2.00;;;7.60;99.90;;;;;;5091254;28;20386;-69
2022/11/20 03:46:01;;;;;;;2.40;1.90;;;7.60;99.90;;;;;;5091667;28;20393;-68
2022/11/20 03:48:27;;;;;;;3.17;2.10;;;7.70;99.90;;;;;;5091723;28;20871;-69
2022/11/20 03:51:19;;;;;;;2.00;1.80;;;7.70;99.90;;;;;;5091734;28;20469;-70
2022/11/20 03:53:46;;;;;;;1.67;1.52;;;7.70;99.90;;;;;;5090989;28;20389;-68
2022/11/20 03:56:13;;;;;;;2.40;1.92;;;7.70;99.90;;;;;;5091667;28;20397;-70
2022/11/20 03:58:40;;;;;;;2.80;2.30;;;7.70;99.90;;;;;;5091673;28;20390;-70
2022/11/20 04:01:18;;;;;;;2.80;2.40;;;7.60;99.90;;;;;;5091553;28;20382;-69
2022/11/20 04:03:44;;;;;;;2.58;2.10;;;7.60;99.90;;;;;;5090965;28;20491;-71
2022/11/20 04:06:17;;;;;;;2.40;2.10;;;7.60;99.90;;;;;;5091222;28;20397;-69
2022/11/20 04:08:43;;;;;;;2.67;2.00;;;7.60;99.90;;;;;;5091334;28;20401;-71
2022/11/20 04:11:10;;;;;;;3.22;2.22;;;7.60;99.90;;;;;;5091403;28;20382;-69
2022/11/20 04:13:36;;;;;;;2.58;1.90;;;7.60;99.90;;;;;;5090537;28;20393;-69
2022/11/20 04:16:02;;;;;;;2.17;1.90;;;7.60;99.90;;;;;;5091320;28;20481;-69
2022/11/20 04:18:27;;;;;;;1.92;1.80;;;7.70;99.90;;;;;;5091211;28;20382;-68
2022/11/20 04:20:53;;;;;;;2.05;1.80;;;7.70;99.90;;;;;;5091406;28;20452;-72
2022/11/20 04:23:18;;;;;;;2.00;1.90;;;7.70;99.90;;;;;;5090690;28;20374;-68
2022/11/20 04:25:44;;;;;;;2.33;2.13;;;7.60;99.90;;;;;;5091158;28;20400;-68
2022/11/20 04:28:09;;;;;;;1.70;1.40;;;7.60;99.90;;;;;;5091128;28;20406;-69
2022/11/20 04:30:35;;;;;;;1.50;1.40;;;7.60;99.90;;;;;;5091403;28;20407;-69
2022/11/20 04:33:00;;;;;;;1.40;1.30;;;7.70;99.90;;;;;;5090846;28;20440;-68
2022/11/20 04:35:26;;;;;;;1.30;1.20;;;7.70;99.90;;;;;;5091185;28;20439;-69
2022/11/20 04:37:52;;;;;;;1.50;1.40;;;7.70;99.90;;;;;;5090306;28;20431;-69
2022/11/20 04:40:17;;;;;;;1.80;1.10;;;7.70;99.90;;;;;;5078882;28;20376;-68
2022/11/20 04:42:43;;;;;;;1.70;1.30;;;7.60;99.90;;;;;;5070457;28;21189;-69
2022/11/20 04:45:09;;;;;;;1.20;1.10;;;7.60;99.90;;;;;;5071344;28;21130;-68
2022/11/20 04:47:34;;;;;;;1.10;1.00;;;7.60;99.90;;;;;;5070290;28;20437;-68
2022/11/20 04:50:00;;;;;;;1.70;1.17;;;7.60;99.90;;;;;;5083492;28;20398;-69
2022/11/20 04:52:25;;;;;;;1.30;1.20;;;7.60;99.90;;;;;;5082066;28;20432;-69
2022/11/20 04:54:52;;;;;;;1.20;1.10;;;7.50;99.90;;;;;;5083832;28;20384;-69
2022/11/20 04:57:18;;;;;;;2.00;1.23;;;7.60;99.90;;;;;;5089000;28;20374;-68
2022/11/20 04:59:44;;;;;;;1.60;1.00;;;7.50;99.90;;;;;;5090646;28;20406;-69
2022/11/20 05:02:10;;;;;;;1.27;1.00;;;7.50;99.90;;;;;;5090608;28;20860;-68
2022/11/20 05:04:36;;;;;;;0.80;0.80;;;7.60;99.90;;;;;;5081267;28;20921;-69
2022/11/20 05:07:01;;;;;;;1.80;1.00;;;7.70;99.90;;;;;;5086303;28;20386;-69
2022/11/20 05:09:27;;;;;;;1.10;1.00;;;7.60;99.90;;;;;;5090384;28;20390;-69
2022/11/20 05:11:52;;;;;;;1.52;0.88;;;7.60;99.90;;;;;;5082066;28;20701;-69
2022/11/20 05:14:18;;;;;;;1.00;1.00;;;7.60;99.90;;;;;;5087801;28;20787;-68
2022/11/20 05:16:43;;;;;;;1.80;0.90;;;7.60;99.90;;;;;;5090322;28;20880;-70
2022/11/20 05:19:09;;;;;;;1.50;0.90;;;7.60;99.90;;;;;;5089186;28;20876;-69
2022/11/20 05:21:34;;;;;;;1.10;1.00;;;7.60;99.90;;;;;;5090309;28;20469;-69
2022/11/20 05:24:00;;;;;;;2.00;1.80;;;7.60;99.90;;;;;;5089626;28;20397;-70
2022/11/20 05:26:25;;;;;;;1.60;1.40;;;7.60;99.90;;;;;;5090257;28;20456;-70
2022/11/20 05:28:51;;;;;;;1.50;1.40;;;7.50;99.90;;;;;;5090370;28;20915;-69
2022/11/20 05:31:22;;;;;;;1.40;1.20;;;7.50;99.90;;;;;;5090166;28;20481;-69
2022/11/20 05:33:48;;;;;;;1.95;1.30;;;7.60;99.90;;;;;;5081155;28;20420;-70
2022/11/20 05:36:14;;;;;;;1.80;1.60;;;7.60;99.90;;;;;;5090256;28;20424;-69
2022/11/20 05:38:40;;;;;;;1.55;1.45;;;7.60;99.90;;;;;;5090317;28;20389;-70
2022/11/20 05:41:11;;;;;;;1.70;1.60;;;7.50;99.90;;;;;;5071528;28;20734;-70
2022/11/20 05:43:39;;;;;;;1.85;1.60;;;7.50;99.90;;;;;;5069122;28;20407;-69
2022/11/20 05:46:06;;;;;;;1.67;1.58;;;7.50;99.90;;;;;;5069967;28;20391;-68
2022/11/20 05:48:33;;;;;;;2.60;1.50;;;7.50;99.90;;;;;;5069857;28;20447;-69
2022/11/20 05:50:59;;;;;;;1.70;1.60;;;7.50;99.90;;;;;;5069990;28;20399;-70
2022/11/20 05:53:25;;;;;;;2.10;1.90;;;7.50;99.90;;;;;;5084245;28;20381;-69
2022/11/20 05:56:18;;;;;;;2.13;1.70;;;7.60;99.90;;;;;;5084531;28;20386;-69
2022/11/20 05:58:44;;;;;;;2.50;2.00;;;7.60;99.90;;;;;;5089055;28;20400;-69
2022/11/20 06:01:12;;;;;;;2.40;1.85;;;7.50;99.90;;;;;;5090031;28;20378;-69
2022/11/20 06:03:38;;;;;;;1.60;1.50;;;7.50;99.90;;;;;;5089176;28;20438;-69
2022/11/20 06:06:05;;;;;;;1.70;1.60;;;7.40;99.90;;;;;;5088684;28;20404;-69
2022/11/20 06:08:31;;;;;;;1.70;1.60;;;7.40;99.90;;;;;;5090012;28;20409;-70
2022/11/20 06:10:57;;;;;;;1.60;1.50;;;7.50;99.90;;;;;;5089856;28;20374;-69
2022/11/20 06:13:23;;;;;;;1.70;1.30;;;7.50;99.90;;;;;;5089017;28;20444;-69
2022/11/20 06:15:52;;;;;;;1.77;1.45;;;7.50;99.90;;;;;;5089793;28;20382;-70
2022/11/20 06:18:18;;;;;;;1.77;1.67;;;7.50;99.90;;;;;;5089937;28;20382;-68
2022/11/20 06:20:44;;;;;;;2.10;1.50;;;7.50;99.90;;;;;;5089822;28;20434;-70
2022/11/20 06:23:10;;;;;;;1.60;1.50;;;7.50;99.90;;;;;;5089076;28;20385;-69
2022/11/20 06:25:39;;;;;;;1.80;1.70;;;7.50;99.90;;;;;;5089652;28;20389;-70
2022/11/20 06:28:05;;;;;;;1.80;1.70;;;7.50;99.90;;;;;;5089473;28;20411;-70
2022/11/20 06:30:30;;;;;;;1.70;1.60;;;7.50;99.90;;;;;;5091591;28;20477;-70
2022/11/20 06:32:56;;;;;;;1.73;1.63;;;7.50;99.90;;;;;;5092644;28;20378;-71
2022/11/20 06:35:21;;;;;;;1.80;1.70;;;7.50;99.90;;;;;;5093615;28;20436;-69
2022/11/20 06:37:47;;;;;;;1.80;1.70;;;7.40;99.90;;;;;;5093284;28;20386;-70
2022/11/20 06:40:13;;;;;;;1.90;1.80;;;7.40;99.90;;;;;;5081940;28;20394;-68
2022/11/20 06:42:38;;;;;;;2.90;2.10;;;7.30;99.90;;;;;;5085478;28;20414;-70
2022/11/20 06:45:04;;;;;;;1.90;1.70;;;7.30;99.90;;;;;;5089592;28;20526;-70
2022/11/20 06:47:30;;;;;;;2.80;1.95;;;7.30;99.90;;;;;;5093344;28;20420;-69
2022/11/20 06:49:55;;;;;;;2.20;2.00;;;7.30;99.90;;;;;;5092984;28;20488;-69
2022/11/20 06:52:21;;;;;;;2.27;2.07;;;7.30;99.90;;;;;;5093101;28;20413;-69
2022/11/20 06:54:47;;;;;;;2.22;1.90;;;7.40;99.90;;;;;;5090425;28;20906;-70
2022/11/20 06:57:12;;;;;;;2.30;1.73;;;7.40;99.90;;;;;;5086597;28;20397;-70
2022/11/20 06:59:38;;;;;;;2.13;1.70;;;7.40;99.90;;;;;;5084656;28;20386;-69
2022/11/20 07:02:03;;;;;;;2.20;1.80;;;7.40;99.90;;;;;;5092739;28;20900;-69
2022/11/20 07:04:29;;;;;;;1.80;1.40;;;7.40;99.90;;;;;;5083871;28;20390;-70
2022/11/20 07:06:54;;;;;;;1.80;1.70;;;7.40;99.90;;;;;;5092875;28;20507;-69
2022/11/20 07:09:20;;;;;;;2.13;1.93;;;7.40;99.90;;;;;;5092752;28;20405;-70
2022/11/20 07:11:45;;;;;;;1.90;1.70;;;7.50;99.90;;;;;;5084038;28;20419;-69
2022/11/20 07:14:11;;;;;;;2.20;1.90;;;7.50;99.90;;;;;;5091931;28;20378;-70
2022/11/20 07:16:36;;;;;;;3.50;2.10;;;7.50;99.90;;;;;;5092557;28;20389;-70
2022/11/20 07:19:02;;;;;;;2.03;1.83;;;7.50;99.90;;;;;;5092737;28;20394;-70
2022/11/20 07:21:28;;;;;;;2.47;2.28;;;7.50;99.90;;;;;;5092682;28;20386;-70
2022/11/20 07:23:53;;;;;;;2.70;1.90;;;7.50;99.90;;;;;;5091620;28;20852;-70
2022/11/20 07:26:19;;;;;;;2.30;1.60;;;7.50;99.90;;;;;;5092407;28;20382;-70
2022/11/20 07:28:45;;;;;;;4.35;1.90;;;7.50;99.90;;;;;;5092339;28;20394;-69
2022/11/20 07:31:11;;;;;;;2.35;1.88;;;7.50;99.90;;;;;;5092502;28;20379;-69
2022/11/20 07:33:37;;;;;;;2.25;1.70;;;7.50;99.90;;;;;;5091438;28;20389;-70
2022/11/20 07:36:03;;;;;;;2.33;1.80;;;7.60;99.90;;;;;;5092415;28;20457;-69
2022/11/20 07:38:29;;;;;;;2.10;1.90;;;7.60;99.90;;;;;;5092274;28;20382;-69
2022/11/20 07:40:57;;;;;;;2.90;1.80;;;7.60;99.90;;;;;;5074622;28;20761;-69
2022/11/20 07:43:23;;;;;;;2.10;1.60;;;7.60;99.90;;;;;;5069383;28;20799;-70
2022/11/20 07:45:48;;;;;;;1.85;1.65;;;7.60;99.90;;;;;;5072139;28;20388;-70
2022/11/20 07:48:14;;;;;;;1.85;1.35;;;7.60;99.90;;;;;;5071865;28;20811;-70
2022/11/20 07:50:39;;;;;;;1.77;1.67;;;7.60;99.90;;;;;;5071950;28;21051;-70
2022/11/20 07:53:06;;;;;;;1.67;1.58;;;7.70;99.90;;;;;;5071040;28;20890;-70
2022/11/20 07:55:32;;;;;;;2.67;1.60;;;7.70;99.90;;;;;;5071909;28;20376;-69
2022/11/20 07:57:58;;;;;;;2.72;1.95;;;7.60;99.90;;;;;;5072570;28;20719;-70
2022/11/20 08:00:24;;;;;;;3.45;2.00;;;7.50;99.90;;;;;;5071895;28;20380;-70
2022/11/20 08:02:49;;;;;;;2.33;2.13;;;7.40;99.90;;;;;;5070755;28;20758;-69
2022/11/20 08:05:15;;;;;;;2.27;2.07;;;7.40;99.90;;;;;;5071576;28;20379;-69
2022/11/20 08:07:42;;;;;;;3.20;2.77;;;7.30;99.90;;;;;;5071441;28;20445;-70
2022/11/20 08:10:11;;;;;;;2.58;2.38;;;7.30;99.90;;;;;;5071217;28;20765;-70
2022/11/20 08:15:27;;;;;;;2.60;2.10;;;7.30;99.90;;;;;;5071373;28;20433;-70
2022/11/20 08:17:58;;;;;;;2.40;2.20;;;7.20;99.90;;;;;;5071256;28;20482;-69
2022/11/20 08:20:23;;;;;;;4.00;2.70;;;7.20;99.90;;;;;;5071300;28;20383;-70
2022/11/20 08:22:49;;;;;;;2.63;2.40;;;7.20;99.90;;;;;;5070224;28;20388;-69
2022/11/20 08:25:14;;;;;;;3.15;2.60;;;7.30;99.90;;;;;;5071281;28;21055;-69
2022/11/20 08:27:40;;;;;;;2.80;2.50;;;7.30;99.90;;;;;;5071049;28;20391;-71
2022/11/20 08:30:06;;;;;;;2.97;2.70;;;7.30;99.90;;;;;;5070981;28;20847;-69
2022/11/20 08:32:32;;;;;;;3.55;2.70;;;7.40;99.90;;;;;;5070431;28;20391;-69
2022/11/20 08:34:57;;;;;;;2.78;2.30;;;7.40;99.90;;;;;;5070814;28;20466;-69
2022/11/20 08:37:23;;;;;;;2.95;2.30;;;7.40;99.90;;;;;;5070880;28;20380;-70
2022/11/20 08:39:48;;;;;;;3.90;2.35;;;7.50;99.90;;;;;;5078667;28;20389;-69
2022/11/20 08:42:14;;;;;;;2.83;2.40;;;7.40;99.90;;;;;;5090851;28;20389;-70
2022/11/20 08:44:39;;;;;;;2.40;2.20;;;7.40;99.90;;;;;;5090126;28;20390;-71
2022/11/20 08:47:05;;;;;;;2.73;2.00;;;7.40;99.90;;;;;;5091047;28;20970;-70
2022/11/20 08:49:30;;;;;;;3.03;2.30;;;7.50;99.90;;;;;;5090649;28;20398;-70
2022/11/20 08:51:57;;;;;;;2.80;2.10;;;7.50;99.90;;;;;;5090840;28;20756;-70
2022/11/20 08:54:22;;;;;;;3.97;2.00;;;7.50;99.90;;;;;;5088908;28;20748;-71
2022/11/20 08:56:48;;;;;;;2.73;1.70;;;7.60;99.90;;;;;;5082331;28;20374;-71
2022/11/20 08:59:14;;;;;;;3.70;2.10;;;7.60;99.90;;;;;;5089288;28;20394;-71
2022/11/20 09:01:39;;;;;;;2.70;2.50;;;7.60;99.90;;;;;;5082315;28;20507;-69
2022/11/20 09:04:05;;;;;;;2.10;1.90;;;7.60;99.90;;;;;;5089771;28;20390;-69
2022/11/20 09:06:30;;;;;;;2.43;1.90;;;7.60;99.90;;;;;;5090662;28;20382;-69
2022/11/20 09:08:56;;;;;;;2.67;1.70;;;7.60;99.90;;;;;;5090563;28;20473;-70
2022/11/20 09:11:22;;;;;;;1.95;1.80;;;7.60;99.90;;;;;;5090549;28;20370;-71
2022/11/20 09:13:48;;;;;;;2.08;1.88;;;7.70;99.90;;;;;;5106501;22;20455;-69
2022/11/20 09:16:13;;;;;;;3.05;2.20;;;7.60;99.90;;;;;;5082048;28;20431;-69
2022/11/20 09:18:39;;;;;;;2.47;2.13;;;7.50;99.90;;;;;;5090487;28;20394;-69
2022/11/20 09:21:12;;;;;;;3.60;2.20;;;7.60;99.90;;;;;;5090446;28;20461;-70
2022/11/20 09:23:39;;;;;;;3.20;2.42;;;7.60;99.90;;;;;;5084875;28;20380;-69
2022/11/20 09:26:06;;;;;;;3.15;2.70;;;7.60;99.90;;;;;;5061835;28;20378;-69
2022/11/20 09:28:32;;;;;;;3.78;2.45;;;7.60;99.90;;;;;;5070155;28;20847;-70
2022/11/20 09:30:59;;;;;;;4.10;2.30;;;7.60;99.90;;;;;;5070143;28;20380;-70
2022/11/20 09:33:24;;;;;;;2.90;2.22;;;7.60;99.90;;;;;;5069290;28;20719;-71
2022/11/20 09:35:50;;;;;;;2.95;2.30;;;7.60;99.90;;;;;;5070021;28;20384;-70
2022/11/20 09:38:15;;;;;;;3.45;3.10;;;7.60;99.90;;;;;;5070131;28;20382;-70
2022/11/20 09:40:49;;;;;;;2.80;2.35;;;7.60;99.90;;;;;;5054981;28;20381;-70
2022/11/20 09:43:49;;;;;;;2.95;2.45;;;7.70;99.90;;;;;;5049492;28;20389;-70
2022/11/20 09:46:28;;;;;;;2.38;2.17;;;7.70;99.90;;;;;;5050609;28;20385;-70
2022/11/20 09:49:23;;;;;;;2.38;2.10;;;7.90;99.90;;;;;;5049973;28;20759;-70
2022/11/20 09:52:29;;;;;;;3.63;2.45;;;7.70;99.90;;;;;;5050491;28;20384;-71
2022/11/20 09:54:55;;;;;;;3.80;1.95;;;7.80;99.90;;;;;;5062152;28;20859;-70
2022/11/20 09:57:34;;;;;;;1.90;1.70;;;7.90;99.90;;;;;;5066549;28;20471;-70
2022/11/20 10:00:04;;;;;;;2.20;2.05;;;7.80;99.90;;;;;;5057698;28;20819;-70
2022/11/20 10:02:42;;;;;;;2.58;1.80;;;7.90;99.90;;;;;;5069707;28;20388;-70
2022/11/20 10:05:39;;;;;;;2.73;2.10;;;7.80;99.90;;;;;;5071072;28;20878;-70
2022/11/20 10:08:05;;;;;;;3.60;2.30;;;7.90;99.90;;;;;;5073775;28;20405;-71
2022/11/20 10:10:43;;;;;;;3.03;2.27;;;7.90;99.90;;;;;;5073853;28;20380;-71
2022/11/20 10:13:24;;;;;;;2.60;1.95;;;7.90;99.90;;;;;;5071672;28;20395;-70
2022/11/20 10:16:27;;;;;;;2.47;2.13;;;8.00;99.90;;;;;;5073748;28;20392;-71
2022/11/20 10:19:35;;;;;;;4.75;3.00;;;7.90;99.90;;;;;;5074004;28;20387;-70
2022/11/20 10:22:47;;;;;;;3.20;2.60;;;7.90;99.90;;;;;;5074293;28;20384;-70
2022/11/20 10:25:19;;;;;;;3.00;2.60;;;8.00;99.90;;;;;;5037307;28;20383;-70
2022/11/20 10:27:45;;;;;;;2.83;2.63;;;8.00;99.90;;;;;;5073810;28;20418;-69
2022/11/20 10:30:15;;;;;;;3.30;2.30;;;7.90;99.90;;;;;;5073429;28;20886;-70
2022/11/20 10:32:45;;;;;;;4.22;3.08;;;7.90;99.90;;;;;;5072857;28;20395;-70
2022/11/20 10:35:29;;;;;;;3.90;2.57;;;8.00;99.90;;;;;;5073623;28;20376;-70
2022/11/20 10:38:05;;;;;;;3.05;2.50;;;7.90;99.90;;;;;;5073309;28;20376;-71
2022/11/20 10:40:50;;;;;;;3.95;2.38;;;8.00;99.90;;;;;;5060344;28;20393;-70
2022/11/20 10:43:26;;;;;;;2.72;2.35;;;8.00;99.90;;;;;;5059317;28;20392;-69
2022/11/20 10:46:07;;;;;;;3.90;2.80;;;8.20;99.90;;;;;;5059962;28;20766;-70
2022/11/20 10:48:33;;;;;;;3.08;2.70;;;8.20;99.90;;;;;;5067515;28;21002;-71
2022/11/20 10:51:12;;;;;;;4.90;2.50;;;8.20;99.90;;;;;;5068519;28;20387;-71
2022/11/20 10:53:58;;;;;;;4.28;2.90;;;8.10;99.90;;;;;;5079188;28;20376;-71
2022/11/20 10:56:39;;;;;;;2.95;2.75;;;8.10;99.90;;;;;;5064504;28;20765;-71
2022/11/20 10:59:25;;;;;;;3.90;2.60;;;8.10;99.90;;;;;;5071824;28;20410;-72
2022/11/20 11:01:51;;;;;;;3.00;2.38;;;8.30;99.90;;;;;;5071357;28;20885;-71
2022/11/20 11:04:38;;;;;;;3.50;3.00;;;8.20;99.90;;;;;;5072054;28;20387;-72
2022/11/20 11:07:30;;;;;;;3.50;2.50;;;8.20;99.90;;;;;;5078406;28;20391;-71
2022/11/20 11:09:56;;;;;;;5.20;3.00;;;8.20;99.90;;;;;;5060812;28;20445;-71
2022/11/20 11:12:25;;;;;;;3.30;2.50;;;8.20;99.90;;;;;;5054332;28;20451;-71
2022/11/20 11:14:53;;;;;;;3.10;2.40;;;8.30;99.90;;;;;;5052207;28;20444;-71
2022/11/20 11:17:47;;;;;;;2.75;2.22;;;8.30;99.90;;;;;;5052819;28;20385;-72
2022/11/20 11:20:25;;;;;;;3.60;2.50;;;8.30;99.90;;;;;;5052657;28;20382;-71
2022/11/20 11:22:56;;;;;;;3.80;2.90;;;8.60;99.90;;;;;;5054317;28;20397;-71
2022/11/20 11:25:27;;;;;;;2.20;2.00;;;8.60;99.90;;;;;;5072229;28;20392;-71
2022/11/20 11:27:55;;;;;;;5.90;4.60;;;8.60;99.90;;;;;;5072639;28;20761;-70
2022/11/20 11:30:22;;;;;;;2.35;2.15;;;8.70;99.90;;;;;;5072209;28;20427;-71
2022/11/20 11:32:48;;;;;;;3.60;2.20;;;8.90;99.90;;;;;;5053562;28;20438;-70
2022/11/20 11:35:26;;;;;;;5.80;3.30;;;8.90;99.90;;;;;;5072127;28;20372;-71
2022/11/20 11:38:02;;;;;;;3.15;1.73;;;9.80;99.90;;;;;;5072222;28;20426;-70
2022/11/20 11:40:30;;;;;;;1.67;1.45;;;10.50;99.90;;;;;;5071909;28;20429;-71
2022/11/20 11:42:59;;;;;;;2.10;1.70;;;10.10;99.90;;;;;;5071334;28;20380;-70
2022/11/20 11:45:26;;;;;;;2.42;1.50;;;9.80;99.90;;;;;;5072021;28;20387;-70
2022/11/20 11:47:55;;;;;;;2.00;1.45;;;9.40;99.90;;;;;;5072110;28;20423;-70
2022/11/20 11:50:28;;;;;;;1.83;1.73;;;9.30;99.90;;;;;;5071844;28;20430;-70
2022/11/20 11:53:08;;;;;;;2.00;1.70;;;8.90;99.90;;;;;;5071027;28;20441;-70
2022/11/20 11:55:39;;;;;;;2.10;1.90;;;8.70;99.90;;;;;;5071959;28;20371;-71
2022/11/20 11:58:34;;;;;;;1.63;1.30;;;9.80;99.90;;;;;;5071993;28;20450;-71
2022/11/20 12:01:27;;;;;;;2.80;1.50;;;11.00;99.90;;;;;;5050580;28;20889;-71
2022/11/20 12:04:01;;;;;;;1.90;1.20;;;11.70;99.90;;;;;;5070936;28;20481;-72
2022/11/20 12:06:29;;;;;;;1.95;1.20;;;12.10;99.90;;;;;;5071779;28;20382;-72
2022/11/20 12:09:08;;;;;;;2.05;1.10;;;12.50;99.00;;;;;;5071775;28;20399;-71
2022/11/20 12:11:49;;;;;;;1.50;1.40;;;12.00;97.20;;;;;;5071568;28;20378;-71
2022/11/20 12:14:27;;;;;;;1.50;1.40;;;11.50;98.80;;;;;;5070567;28;20398;-71
2022/11/20 12:16:53;;;;;;;2.40;1.10;;;11.50;99.70;;;;;;5071492;28;20414;-72
2022/11/20 12:19:19;;;;;;;3.65;1.50;;;11.70;97.50;;;;;;5071377;28;20380;-71
2022/11/20 12:21:51;;;;;;;2.05;1.20;;;12.30;95.80;;;;;;5071337;28;20383;-71
2022/11/20 12:24:42;;;;;;;2.47;1.30;;;12.50;96.30;;;;;;5067135;28;20933;-71
2022/11/20 12:27:13;;;;;;;1.20;1.10;;;12.10;93.90;;;;;;5070457;28;20383;-72
2022/11/20 12:30:14;;;;;;;1.95;1.33;;;11.00;98.20;;;;;;5071049;28;20396;-71
2022/11/20 12:32:58;;;;;;;2.93;1.60;;;10.90;99.90;;;;;;5070062;28;20468;-71
2022/11/20 12:35:54;;;;;;;1.90;1.45;;;10.10;99.90;;;;;;5071085;28;20456;-72
2022/11/20 12:38:41;;;;;;;2.08;1.50;;;9.90;99.90;;;;;;5071247;28;20871;-71
2022/11/20 12:47:47;;;;;;;3.33;1.80;;;9.10;99.90;;;;;;5062434;28;20948;-71
2022/11/20 12:50:20;;;;;;;2.95;1.70;;;8.90;99.90;;;;;;5073890;28;20449;-71
2022/11/20 12:53:01;;;;;;;2.30;2.10;;;9.00;99.90;;;;;;5063930;28;21257;-72
2022/11/20 12:55:45;;;;;;;2.57;2.03;;;9.00;99.90;;;;;;5070515;28;20402;-71
2022/11/20 12:58:35;;;;;;;4.10;2.13;;;9.00;99.90;;;;;;5070804;28;20371;-71
2022/11/20 13:01:39;;;;;;;3.10;2.50;;;8.90;99.90;;;;;;5070701;28;20425;-72
2022/11/20 13:04:37;;;;;;;1.90;1.80;;;8.90;99.90;;;;;;5051833;28;20383;-71
2022/11/20 13:07:07;;;;;;;3.90;2.10;;;8.90;99.90;;;;;;5065041;28;20392;-73
2022/11/20 13:09:43;;;;;;;3.90;2.13;;;8.80;99.90;;;;;;5070645;28;20465;-71
2022/11/20 13:12:17;;;;;;;2.50;1.63;;;9.00;99.90;;;;;;5077583;28;20384;-70
2022/11/20 13:14:50;;;;;;;2.92;2.03;;;8.90;99.90;;;;;;5063159;28;20419;-70
2022/11/20 13:17:41;;;;;;;1.90;1.63;;;9.00;99.90;;;;;;5070669;28;20376;-69
2022/11/20 13:20:14;;;;;;;2.03;1.40;;;9.00;99.90;;;;;;5070859;28;20415;-71
2022/11/20 13:22:51;;;;;;;2.30;1.60;;;9.10;99.90;;;;;;5069826;28;20419;-71